Terminal Aerodrome Forecast
Issued by NWS

Home | Current Version | Previous Version | Text Only | Print | Product List | Glossary On
Versions: 1 2 3 4 5 6 7 8 9 10 11 12 13 14 15 16 17 18 19 20 21 22 23 24 25 26 27 28 29 30 31 32 33 34 35 36 37 38 39 40 41 42 43 44 45 46 47 48 49 50
000
FTUS46 KPQR 070542
TAFONP
TAF
KONP 070542Z 0706/0806 23007KT 6SM BR OVC013
     FM070800 20004KT 3SM BR OVC007
     FM071200 19004KT 1SM BR OVC004
     FM071700 27008KT 4SM BR OVC006
     FM072100 31008KT P6SM OVC015
     FM080500 VRB03KT 4SM BR OVC008=

USA.gov is the U.S. government's official web portal to all federal, state and local government web resources and services.